Time;durP1;ratioP1;P1;durP2;ratioP2;P2;SDS_P1;SDS_P2;PMS_P1;PMS_P2;Temp;Humidity;BMP_temperature;BMP_pressure;BME280_temperature;BME280_humidity;BME280_pressure;Samples;Min_cycle;Max_cycle;Signal;HPM_P1;HPM_P2
2022/03/19 00:00:58;;;;;;;20.27;5.18;;;;;;;7.86;83.73;104503.56;5090829;28;20028;-66
2022/03/19 00:03:25;;;;;;;16.70;5.10;;;;;;;7.88;83.14;104504.31;5073334;28;20023;-68
2022/03/19 00:05:50;;;;;;;25.15;5.22;;;;;;;7.93;83.00;104502.34;5073445;28;20031;-68
2022/03/19 00:08:19;;;;;;;18.55;5.20;;;;;;;7.65;83.82;104501.16;5074173;28;20024;-68
2022/03/19 00:10:45;;;;;;;15.07;4.70;;;;;;;7.68;84.09;104503.59;5092431;28;20034;-67
2022/03/19 00:13:10;;;;;;;17.65;4.38;;;;;;;7.69;84.16;104507.00;5093090;28;20112;-67
2022/03/19 00:15:37;;;;;;;19.42;5.40;;;;;;;7.64;83.80;104496.09;5093355;28;20056;-69
2022/03/19 00:18:03;;;;;;;19.52;5.07;;;;;;;7.66;84.20;104502.00;5074253;28;20051;-69
2022/03/19 00:20:28;;;;;;;21.63;5.38;;;;;;;7.57;84.40;104503.28;5074063;28;20031;-67
2022/03/19 00:22:54;;;;;;;17.15;4.95;;;;;;;7.46;84.63;104503.81;5074056;28;20024;-68
2022/03/19 00:25:19;;;;;;;22.08;5.20;;;;;;;7.53;82.93;104512.06;5074061;28;20519;-67
2022/03/19 00:27:44;;;;;;;17.15;4.60;;;;;;;7.48;83.63;104501.19;5074309;28;20390;-65
2022/03/19 00:30:10;;;;;;;18.98;4.93;;;;;;;7.51;83.33;104502.75;5074865;28;20055;-68
2022/03/19 00:32:37;;;;;;;20.17;5.22;;;;;;;7.47;84.04;104512.34;5092575;28;20063;-67
2022/03/19 00:35:03;;;;;;;21.23;5.20;;;;;;;7.50;83.07;104506.22;5059189;28;20028;-68
2022/03/19 00:37:30;;;;;;;16.33;4.28;;;;;;;7.30;83.52;104504.63;5096751;28;20032;-66
2022/03/19 00:39:55;;;;;;;19.33;4.50;;;;;;;7.25;84.02;104502.28;5078734;28;20082;-67
2022/03/19 00:42:20;;;;;;;14.68;4.20;;;;;;;7.26;83.44;104503.13;5079143;28;20685;-68
2022/03/19 00:44:47;;;;;;;25.23;5.05;;;;;;;7.33;82.95;104512.19;5097401;28;20020;-66
2022/03/19 00:47:12;;;;;;;18.27;5.50;;;;;;;7.21;82.38;104503.31;5097077;28;20050;-66
2022/03/19 00:49:38;;;;;;;23.77;4.90;;;;;;;7.08;82.74;104510.81;5078563;28;20043;-67
2022/03/19 00:52:04;;;;;;;20.42;4.90;;;;;;;7.13;82.81;104510.56;5078794;28;20111;-69
2022/03/19 00:54:29;;;;;;;20.65;4.38;;;;;;;7.28;82.56;104499.56;5097146;28;20031;-67
2022/03/19 00:56:54;;;;;;;17.35;4.13;;;;;;;7.21;81.84;104496.44;5096950;28;20047;-67
2022/03/19 00:59:20;;;;;;;19.92;4.30;;;;;;;7.13;81.96;104500.28;5097370;28;20430;-67
2022/03/19 01:01:45;;;;;;;16.38;4.80;;;;;;;7.16;81.43;104500.13;5078771;28;20501;-67
2022/03/19 01:04:10;;;;;;;17.30;3.92;;;;;;;7.05;80.73;104497.25;5097033;28;20465;-66
2022/03/19 01:06:35;;;;;;;17.13;4.32;;;;;;;7.11;80.67;104504.69;5096957;28;20024;-66
2022/03/19 01:09:01;;;;;;;15.13;3.80;;;;;;;6.99;80.56;104501.78;5078613;28;20060;-67
2022/03/19 01:11:27;;;;;;;17.58;4.22;;;;;;;7.04;80.23;104496.41;5096661;28;20024;-67
2022/03/19 01:13:53;;;;;;;19.95;4.03;;;;;;;7.04;79.97;104491.25;5078479;28;20169;-67
2022/03/19 01:16:19;;;;;;;13.02;3.92;;;;;;;7.12;79.69;104499.47;5078489;28;20062;-66
2022/03/19 01:18:46;;;;;;;17.30;4.03;;;;;;;7.10;79.00;104497.84;5096642;28;20020;-66
2022/03/19 01:21:11;;;;;;;15.00;3.65;;;;;;;6.96;78.72;104494.22;5096397;28;20140;-68
2022/03/19 01:23:36;;;;;;;16.70;4.20;;;;;;;6.89;79.71;104490.25;5096490;28;20111;-67
2022/03/19 01:26:02;;;;;;;22.05;4.63;;;;;;;6.87;79.82;104492.06;5096586;28;20032;-67
2022/03/19 01:28:27;;;;;;;16.83;3.83;;;;;;;6.84;80.10;104488.81;5096549;28;20020;-66
2022/03/19 01:30:53;;;;;;;13.77;3.92;;;;;;;6.84;79.60;104476.78;5096485;28;20022;-68
2022/03/19 01:33:18;;;;;;;18.10;3.80;;;;;;;6.82;78.95;104477.75;5096407;28;20023;-66
2022/03/19 01:35:43;;;;;;;12.88;3.70;;;;;;;6.89;78.54;104482.53;5096328;28;20026;-66
2022/03/19 01:38:08;;;;;;;17.08;4.65;;;;;;;6.86;78.60;104482.69;5077981;28;20057;-68
2022/03/19 01:40:34;;;;;;;16.98;3.92;;;;;;;6.69;78.52;104480.91;5077927;28;20110;-65
2022/03/19 01:43:00;;;;;;;19.42;5.53;;;;;;;6.82;78.76;104482.88;5096158;28;20098;-67
2022/03/19 01:45:26;;;;;;;19.27;4.60;;;;;;;6.75;78.74;104483.19;5096131;28;20051;-67
2022/03/19 01:47:53;;;;;;;14.90;3.72;;;;;;;6.82;78.44;104472.59;5076576;28;20418;-67
2022/03/19 01:50:20;;;;;;;20.13;4.35;;;;;;;6.86;78.20;104476.72;5077711;28;20140;-66
2022/03/19 01:52:46;;;;;;;13.55;4.18;;;;;;;6.71;78.31;104470.56;5077826;28;20442;-66
2022/03/19 01:55:13;;;;;;;16.85;4.50;;;;;;;6.75;78.17;104469.50;5077896;28;20106;-67
2022/03/19 01:57:43;;;;;;;18.00;4.20;;;;;;;6.67;78.07;104469.84;5095684;28;20024;-66
2022/03/19 02:00:12;;;;;;;17.83;4.15;;;;;;;6.50;79.01;104465.50;5077434;28;20119;-67
2022/03/19 02:02:38;;;;;;;12.80;3.50;;;;;;;6.58;78.54;104464.31;5077333;28;20069;-66
2022/03/19 02:05:04;;;;;;;19.90;3.67;;;;;;;6.57;78.14;104472.94;5077148;28;20020;-65
2022/03/19 02:07:31;;;;;;;19.25;3.67;;;;;;;6.52;79.00;104462.84;5094512;28;20024;-67
2022/03/19 02:10:00;;;;;;;15.55;4.18;;;;;;;6.44;78.61;104445.19;5095056;28;20051;-66
2022/03/19 02:12:26;;;;;;;13.38;3.60;;;;;;;6.53;78.24;104461.94;5094772;28;20085;-67
2022/03/19 02:14:52;;;;;;;17.20;3.70;;;;;;;6.57;78.45;104467.78;5095166;28;20094;-67
2022/03/19 02:17:18;;;;;;;15.13;3.55;;;;;;;6.44;78.16;104463.19;5077546;28;20044;-67
2022/03/19 02:19:49;;;;;;;19.75;4.00;;;;;;;6.43;79.38;104455.56;5095422;28;20012;-65
2022/03/19 02:22:18;;;;;;;17.30;4.15;;;;;;;6.41;78.93;104457.34;5095529;28;20177;-67
2022/03/19 02:27:29;;;;;;;15.45;3.75;;;;;;;6.32;79.21;104458.59;5095660;28;20080;-67
2022/03/19 02:29:56;;;;;;;13.98;3.60;;;;;;;6.42;78.40;104464.19;5094923;28;20106;-66
2022/03/19 02:32:23;;;;;;;15.73;3.75;;;;;;;6.22;78.63;104455.63;5076828;28;20024;-66
2022/03/19 02:34:48;;;;;;;16.80;4.25;;;;;;;6.21;78.58;104459.06;5076998;28;20035;-67
2022/03/19 02:37:13;;;;;;;14.02;3.40;;;;;;;6.17;78.66;104449.84;5095171;28;20020;-67
2022/03/19 02:39:39;;;;;;;15.85;3.63;;;;;;;6.16;78.84;104452.47;5076794;28;20383;-67
2022/03/19 02:42:06;;;;;;;22.15;4.28;;;;;;;6.13;79.30;104448.34;5095081;28;20031;-67
2022/03/19 02:44:32;;;;;;;13.75;3.25;;;;;;;6.18;78.92;104448.94;5094831;28;20030;-67
2022/03/19 02:47:00;;;;;;;24.25;3.80;;;;;;;6.15;79.07;104441.38;5094788;28;20028;-66
2022/03/19 02:49:26;;;;;;;16.65;3.72;;;;;;;6.03;79.00;104437.63;5093415;28;20487;-67
2022/03/19 02:51:53;;;;;;;16.88;3.55;;;;;;;6.04;78.81;104438.44;5093975;28;20077;-69
2022/03/19 02:54:26;;;;;;;23.90;4.05;;;;;;;6.12;79.13;104435.56;5076787;28;20078;-66
2022/03/19 02:56:52;;;;;;;11.45;3.30;;;;;;;6.01;79.05;104436.88;5094789;28;20035;-66
2022/03/19 02:59:23;;;;;;;17.17;3.60;;;;;;;5.96;79.52;104425.13;5076185;28;20022;-67
2022/03/19 03:01:59;;;;;;;15.85;3.75;;;;;;;5.97;78.55;104419.09;5076286;28;20020;-66
2022/03/19 03:04:25;;;;;;;17.83;3.75;;;;;;;5.86;78.73;104419.50;5094753;28;20466;-67
2022/03/19 03:06:52;;;;;;;18.40;3.90;;;;;;;6.07;78.47;104417.75;5094671;28;20024;-67
2022/03/19 03:09:20;;;;;;;15.38;4.00;;;;;;;5.92;78.60;104419.25;5094654;28;20107;-67
2022/03/19 03:11:46;;;;;;;13.52;3.53;;;;;;;5.93;78.44;104420.06;5076175;28;20020;-67
2022/03/19 03:14:12;;;;;;;14.77;3.67;;;;;;;5.96;78.70;104417.44;5075475;28;20032;-67
2022/03/19 03:16:38;;;;;;;20.27;4.05;;;;;;;5.93;78.29;104414.94;5076135;28;20524;-67
2022/03/19 03:19:05;;;;;;;16.10;3.75;;;;;;;5.84;78.72;104419.59;5075324;28;20054;-67
2022/03/19 03:21:32;;;;;;;19.25;4.32;;;;;;;5.53;79.82;104416.69;5093607;28;20470;-67
2022/03/19 03:23:57;;;;;;;13.18;4.00;;;;;;;5.56;79.67;104412.25;5075635;28;20027;-66
2022/03/19 03:26:23;;;;;;;17.10;3.70;;;;;;;5.55;79.86;104413.16;5094194;28;20498;-68
2022/03/19 03:28:49;;;;;;;16.48;3.63;;;;;;;5.46;80.43;104415.25;5075794;28;20489;-66
2022/03/19 03:31:15;;;;;;;12.70;3.55;;;;;;;5.51;80.19;104428.72;5094061;28;20027;-66
2022/03/19 03:33:40;;;;;;;13.82;3.42;;;;;;;5.58;79.93;104420.72;5076023;28;20046;-66
2022/03/19 03:36:06;;;;;;;14.27;3.72;;;;;;;5.64;79.14;104427.31;5075988;28;20038;-67
2022/03/19 03:38:32;;;;;;;15.32;3.60;;;;;;;5.61;79.52;104420.59;5094129;28;20024;-66
2022/03/19 03:40:58;;;;;;;19.63;4.30;;;;;;;5.58;80.22;104425.84;5075850;28;20039;-66
2022/03/19 03:43:24;;;;;;;15.20;3.78;;;;;;;5.33;80.90;104427.78;5094089;28;20024;-67
2022/03/19 03:45:50;;;;;;;18.55;4.20;;;;;;;5.24;81.23;104425.59;5092504;28;20026;-66
2022/03/19 03:48:16;;;;;;;17.88;3.72;;;;;;;5.25;81.10;104422.13;5075392;28;20049;-66
2022/03/19 03:50:41;;;;;;;15.80;3.88;;;;;;;5.31;80.43;104411.59;5093995;28;20101;-66
2022/03/19 03:53:07;;;;;;;15.15;4.70;;;;;;;5.27;80.98;104417.75;5075744;28;20020;-66
2022/03/19 03:55:34;;;;;;;12.98;3.63;;;;;;;5.32;80.80;104418.38;5075583;28;20035;-66
2022/03/19 03:58:01;;;;;;;18.85;4.60;;;;;;;5.27;80.74;104418.59;5075594;28;20363;-66
2022/03/19 04:00:27;;;;;;;14.75;4.28;;;;;;;5.18;81.08;104421.53;5075528;28;20043;-68
2022/03/19 04:02:53;;;;;;;15.98;4.85;;;;;;;5.10;81.87;104415.88;5075683;28;20086;-67
2022/03/19 04:05:19;;;;;;;15.60;4.18;;;;;;;5.08;82.01;104420.22;5093581;28;20052;-67
2022/03/19 04:07:44;;;;;;;16.40;4.32;;;;;;;5.08;81.41;104413.38;5093464;28;20061;-66
2022/03/19 04:10:10;;;;;;;16.95;4.38;;;;;;;5.25;81.08;104416.97;5077093;28;20028;-66
2022/03/19 04:12:36;;;;;;;20.70;4.38;;;;;;;5.08;81.79;104423.63;5097907;28;20474;-67
2022/03/19 04:15:02;;;;;;;15.40;3.90;;;;;;;5.15;81.79;104422.50;5097978;28;20027;-67
2022/03/19 04:17:27;;;;;;;23.40;4.93;;;;;;;5.17;82.13;104420.69;5079812;28;20487;-66
2022/03/19 04:19:52;;;;;;;18.77;4.90;;;;;;;4.98;82.33;104422.34;5097816;28;20023;-66
2022/03/19 04:22:18;;;;;;;10.52;4.30;;;;;;;4.91;82.38;104421.72;5079356;28;20114;-67
2022/03/19 04:24:43;;;;;;;24.75;4.78;;;;;;;5.02;82.40;104417.91;5079400;28;20024;-66
2022/03/19 04:27:10;;;;;;;19.25;5.35;;;;;;;5.09;82.22;104403.94;5097588;28;20028;-66
2022/03/19 04:29:36;;;;;;;19.17;4.47;;;;;;;5.11;81.96;104415.81;5097507;28;20059;-67
2022/03/19 04:32:01;;;;;;;21.35;4.68;;;;;;;5.14;81.81;104404.59;5097516;28;20042;-66
2022/03/19 04:34:26;;;;;;;20.23;5.05;;;;;;;5.08;82.53;104407.41;5097436;28;20107;-67
2022/03/19 04:36:51;;;;;;;21.75;5.60;;;;;;;5.24;82.10;104405.91;5097619;28;20337;-65
2022/03/19 04:39:17;;;;;;;15.57;4.78;;;;;;;5.34;82.29;104409.72;5079501;28;20028;-66
2022/03/19 04:41:42;;;;;;;19.88;4.53;;;;;;;5.19;82.05;104407.81;5097418;28;20049;-67
2022/03/19 04:44:08;;;;;;;15.57;5.00;;;;;;;5.20;82.37;104406.91;5097428;28;20020;-66
2022/03/19 04:46:36;;;;;;;19.27;4.80;;;;;;;5.22;82.41;104411.97;5078925;28;20520;-66
2022/03/19 04:49:03;;;;;;;17.70;5.03;;;;;;;5.22;82.09;104400.00;5078143;28;20048;-66
2022/03/19 04:51:37;;;;;;;17.13;5.22;;;;;;;5.25;82.04;104394.72;5078887;28;20035;-67
2022/03/19 04:54:03;;;;;;;21.92;5.50;;;;;;;5.19;83.12;104410.38;5096359;28;20072;-66
2022/03/19 04:56:29;;;;;;;13.95;5.32;;;;;;;5.20;82.70;104402.59;5078782;28;20027;-67
2022/03/19 04:58:57;;;;;;;19.42;5.50;;;;;;;5.25;82.73;104399.84;5096919;28;20497;-67
2022/03/19 05:01:30;;;;;;;23.80;5.40;;;;;;;5.28;82.33;104397.16;5097251;28;20054;-66
2022/03/19 05:03:56;;;;;;;17.02;5.60;;;;;;;5.20;83.29;104409.47;5078854;28;20149;-67
2022/03/19 05:06:22;;;;;;;17.40;5.28;;;;;;;5.04;83.93;104396.44;5097113;28;20421;-66
2022/03/19 05:11:12;;;;;;;17.42;5.25;;;;;;;5.04;83.67;104395.63;5078505;28;20027;-66
2022/03/19 05:11:34;;;;;;;24.77;6.88;;;;;;;4.90;84.88;104403.84;5096829;28;20039;-66
2022/03/19 05:13:59;;;;;;;16.45;5.65;;;;;;;5.04;84.76;104399.00;5078561;28;20024;-67
2022/03/19 05:16:24;;;;;;;24.77;5.85;;;;;;;5.02;84.65;104399.97;5078431;28;20031;-67
2022/03/19 05:18:50;;;;;;;19.10;6.20;;;;;;;5.02;84.58;104392.28;5078659;28;20109;-66
2022/03/19 05:21:15;;;;;;;20.42;5.93;;;;;;;5.06;85.25;104394.63;5096247;28;20449;-67
2022/03/19 05:23:43;;;;;;;19.83;5.55;;;;;;;5.05;84.13;104394.72;5078581;28;20027;-66
2022/03/19 05:26:10;;;;;;;21.08;5.60;;;;;;;5.08;84.73;104399.72;5096678;28;20024;-66
2022/03/19 05:28:35;;;;;;;19.17;5.93;;;;;;;5.12;84.18;104399.53;5078339;28;20048;-67
2022/03/19 05:31:01;;;;;;;17.05;6.10;;;;;;;5.06;83.67;104398.94;5078229;28;20039;-66
2022/03/19 05:36:11;;;;;;;16.02;5.30;;;;;;;5.08;83.91;104402.28;5096365;28;20034;-66
2022/03/19 05:38:37;;;;;;;20.77;6.13;;;;;;;4.92;84.19;104405.47;5077832;28;20471;-68
2022/03/19 05:41:02;;;;;;;23.83;7.38;;;;;;;4.97;84.51;104407.81;5078127;28;20028;-66
2022/03/19 05:43:27;;;;;;;23.13;6.30;;;;;;;4.91;84.44;104414.03;5078320;28;20024;-66
2022/03/19 05:45:53;;;;;;;17.35;6.20;;;;;;;5.02;84.56;104405.09;5096083;28;20035;-65
2022/03/19 05:48:18;;;;;;;20.65;6.82;;;;;;;4.91;84.67;104415.75;5095855;28;20047;-66
2022/03/19 05:50:43;;;;;;;18.35;6.80;;;;;;;4.81;85.16;104409.34;5096158;28;20034;-66
2022/03/19 05:53:08;;;;;;;24.38;6.68;;;;;;;4.95;84.98;104415.59;5096147;28;20031;-66
2022/03/19 05:55:34;;;;;;;19.05;6.07;;;;;;;4.77;85.03;104408.63;5096003;28;20531;-65
2022/03/19 05:57:59;;;;;;;20.65;6.95;;;;;;;4.86;85.15;104409.97;5077880;28;20024;-65
2022/03/19 06:00:24;;;;;;;17.02;6.03;;;;;;;4.92;85.16;104410.59;5095579;28;20028;-66
2022/03/19 06:02:49;;;;;;;19.23;6.55;;;;;;;5.01;84.21;104416.25;5077828;28;20375;-66
2022/03/19 06:05:15;;;;;;;26.35;6.47;;;;;;;4.93;84.78;104413.97;5095609;28;20024;-66
2022/03/19 06:07:40;;;;;;;14.15;5.90;;;;;;;5.02;83.87;104426.44;5077698;28;20056;-67
2022/03/19 06:10:06;;;;;;;17.13;6.03;;;;;;;5.03;83.96;104425.53;5095768;28;20024;-66
2022/03/19 06:12:33;;;;;;;18.52;6.20;;;;;;;5.02;84.71;104428.16;5077348;28;20024;-66
2022/03/19 06:14:58;;;;;;;14.75;5.65;;;;;;;5.03;84.29;104433.22;5077713;28;20035;-65
2022/03/19 06:17:23;;;;;;;19.58;5.82;;;;;;;4.96;84.25;104424.13;5095768;28;20024;-66
2022/03/19 06:19:49;;;;;;;26.25;6.47;;;;;;;4.90;84.37;104420.06;5095398;28;20020;-66
2022/03/19 06:22:17;;;;;;;17.85;6.40;;;;;;;5.14;83.96;104418.25;5077592;28;20022;-66
2022/03/19 06:24:42;;;;;;;17.00;6.63;;;;;;;5.16;84.12;104413.88;5095761;28;20030;-67
2022/03/19 06:27:08;;;;;;;18.25;6.90;;;;;;;5.32;82.66;104424.38;5077271;28;20015;-67
2022/03/19 06:29:33;;;;;;;16.90;6.18;;;;;;;5.43;82.12;104427.31;5077067;28;20030;-67
2022/03/19 06:31:58;;;;;;;17.48;6.30;;;;;;;5.51;82.47;104423.59;5077231;28;20020;-67
2022/03/19 06:34:24;;;;;;;23.73;6.68;;;;;;;5.56;81.96;104412.25;5095553;28;20020;-66
2022/03/19 06:39:33;;;;;;;20.08;5.93;;;;;;;5.63;80.56;104423.06;5101311;28;20417;-66
2022/03/19 06:41:59;;;;;;;18.02;6.35;;;;;;;5.65;80.65;104411.84;5081985;28;20115;-68
2022/03/19 06:44:24;;;;;;;21.35;6.00;;;;;;;5.69;80.47;104422.81;5081695;28;20050;-68
2022/03/19 06:46:49;;;;;;;15.32;5.38;;;;;;;5.73;79.70;104421.78;5082483;28;20180;-67
2022/03/19 06:49:15;;;;;;;13.23;5.25;;;;;;;5.74;79.50;104405.47;5081927;28;20513;-67
2022/03/19 06:51:40;;;;;;;14.98;5.05;;;;;;;5.89;79.50;104420.22;5100520;28;20024;-65
2022/03/19 06:54:05;;;;;;;18.48;6.07;;;;;;;5.83;79.03;104411.94;5101451;28;20028;-69
2022/03/19 06:56:32;;;;;;;17.48;5.40;;;;;;;5.78;78.78;104412.16;5100561;28;20028;-69
2022/03/19 06:58:57;;;;;;;21.67;5.05;;;;;;;5.83;78.83;104420.47;5098009;28;20020;-65
2022/03/19 07:01:22;;;;;;;20.75;5.40;;;;;;;5.78;79.00;104434.41;5096864;28;20020;-66
2022/03/19 07:03:48;;;;;;;20.73;5.43;;;;;;;5.89;77.59;104398.84;5078217;28;20032;-67
2022/03/19 07:06:18;;;;;;;21.50;6.15;;;;;;;6.15;77.57;104425.97;5078091;28;20488;-66
2022/03/19 07:08:44;;;;;;;16.58;5.28;;;;;;;6.16;77.05;104419.94;5077344;28;20016;-67
2022/03/19 07:11:10;;;;;;;14.85;5.05;;;;;;;6.18;76.16;104425.00;5077284;28;20016;-68
2022/03/19 07:13:36;;;;;;;13.70;4.97;;;;;;;6.37;75.36;104422.44;5095502;28;20035;-67
2022/03/19 07:16:02;;;;;;;17.02;4.90;;;;;;;6.40;74.43;104412.03;5095018;28;20027;-66
2022/03/19 07:18:28;;;;;;;14.82;4.90;;;;;;;6.29;74.52;104403.06;5076769;28;20035;-66
2022/03/19 07:20:53;;;;;;;13.73;4.57;;;;;;;6.32;74.22;104402.91;5094811;28;20033;-68
2022/03/19 07:23:19;;;;;;;14.48;5.07;;;;;;;6.57;73.81;104408.69;5077050;28;20024;-66
2022/03/19 07:25:45;;;;;;;18.92;4.68;;;;;;;6.73;72.29;104397.59;5076489;28;20405;-67
2022/03/19 07:28:14;;;;;;;15.95;5.10;;;;;;;6.71;72.51;104407.13;5076475;28;20073;-68
2022/03/19 07:30:41;;;;;;;16.15;5.32;;;;;;;6.73;72.25;104405.31;5076544;28;20463;-66
2022/03/19 07:33:06;;;;;;;16.85;4.80;;;;;;;6.98;72.02;104420.38;5076656;28;20026;-66
2022/03/19 07:35:32;;;;;;;13.30;4.25;;;;;;;7.20;70.20;104412.47;5076397;28;20023;-67
2022/03/19 07:37:57;;;;;;;14.05;4.90;;;;;;;12.43;54.42;104403.22;5094972;28;20051;-67
2022/03/19 07:43:09;;;;;;;11.25;3.42;;;;;;;15.30;44.92;104397.16;5094645;28;20030;-67
2022/03/19 07:45:35;;;;;;;12.40;4.38;;;;;;;14.90;44.11;104381.47;5076439;28;20111;-66
2022/03/19 07:48:01;;;;;;;12.90;4.30;;;;;;;16.43;41.59;104383.88;5094569;28;20023;-67
2022/03/19 07:50:27;;;;;;;11.70;3.90;;;;;;;17.12;40.38;104398.47;5076253;28;20453;-66
2022/03/19 07:52:52;;;;;;;15.70;4.18;;;;;;;16.08;42.29;104392.22;5094117;28;20141;-67
2022/03/19 07:55:18;;;;;;;14.15;3.90;;;;;;;16.71;40.57;104391.78;5094464;28;20359;-68
2022/03/19 07:57:43;;;;;;;16.23;3.90;;;;;;;16.80;40.08;104382.31;5094136;28;20452;-68
2022/03/19 08:00:12;;;;;;;12.93;4.10;;;;;;;16.29;40.59;104397.31;5075859;28;20051;-69
2022/03/19 08:02:38;;;;;;;10.95;3.58;;;;;;;17.22;38.71;104381.94;5075690;28;20024;-68
2022/03/19 08:05:04;;;;;;;12.07;4.20;;;;;;;16.73;39.33;104386.44;5075741;28;20035;-69
2022/03/19 08:07:30;;;;;;;10.05;3.75;;;;;;;16.65;40.10;104381.91;5075752;28;20027;-67
2022/03/19 08:09:56;;;;;;;14.15;4.40;;;;;;;16.39;39.42;104384.25;5093767;28;20020;-67
2022/03/19 08:12:21;;;;;;;16.30;4.40;;;;;;;17.42;38.08;104386.09;5075737;28;20039;-67
2022/03/19 08:14:47;;;;;;;10.68;4.00;;;;;;;17.00;39.65;104372.66;5075779;28;20428;-69
2022/03/19 08:17:13;;;;;;;9.90;4.28;;;;;;;17.30;37.29;104387.25;5093882;28;20072;-67
2022/03/19 08:19:38;;;;;;;11.27;3.95;;;;;;;16.70;38.93;104379.69;5058891;28;20123;-68
2022/03/19 08:22:04;;;;;;;13.48;3.95;;;;;;;17.23;39.00;104370.50;5093958;28;20037;-68
2022/03/19 08:24:29;;;;;;;12.27;3.65;;;;;;;17.58;37.70;104383.69;5094046;28;20016;-67
2022/03/19 08:26:55;;;;;;;13.52;4.10;;;;;;;17.32;38.54;104391.38;5093671;28;20340;-67
2022/03/19 08:29:23;;;;;;;11.80;3.88;;;;;;;17.96;37.25;104362.69;5101256;28;20024;-76
2022/03/19 08:31:52;;;;;;;11.57;4.25;;;;;;;17.93;36.84;104395.22;5083119;28;20107;-77
2022/03/19 08:34:18;;;;;;;10.57;4.18;;;;;;;18.21;36.24;104382.88;5100595;28;20496;-77
2022/03/19 08:36:43;;;;;;;14.05;4.10;;;;;;;18.66;36.49;104371.41;5085060;28;20032;-77
2022/03/19 08:41:53;;;;;;;13.07;4.43;;;;;;;18.29;36.69;104386.53;5105647;28;20503;-76
2022/03/19 08:44:19;;;;;;;12.18;4.05;;;;;;;19.08;35.53;104386.44;5102462;28;20532;-76
2022/03/19 08:46:44;;;;;;;18.42;4.47;;;;;;;18.18;37.60;104383.19;5080922;28;20024;-75
2022/03/19 08:49:09;;;;;;;11.25;4.00;;;;;;;18.61;36.03;104386.78;5088930;28;20044;-76
2022/03/19 08:51:40;;;;;;;14.20;4.20;;;;;;;18.89;35.13;104379.63;5088542;28;20019;-76
2022/03/19 08:54:08;;;;;;;11.95;4.03;;;;;;;18.73;35.50;104387.38;5106178;28;20541;-75
2022/03/19 08:56:34;;;;;;;14.75;4.32;;;;;;;19.08;34.89;104385.63;5107906;28;20024;-74
2022/03/19 08:59:00;;;;;;;13.60;4.10;;;;;;;20.62;32.49;104370.34;5085635;28;20634;-67
2022/03/19 09:01:26;;;;;;;14.32;4.15;;;;;;;19.28;33.66;104386.22;5096587;28;20032;-66
2022/03/19 09:03:52;;;;;;;13.45;4.07;;;;;;;19.26;34.06;104391.59;5096432;28;20062;-68
2022/03/19 09:06:18;;;;;;;11.70;4.15;;;;;;;20.73;32.14;104376.06;5095889;28;20026;-68
2022/03/19 09:08:44;;;;;;;13.75;4.07;;;;;;;20.32;32.39;104380.53;5095297;28;20111;-67
2022/03/19 09:11:10;;;;;;;13.50;4.63;;;;;;;20.72;32.43;104381.50;5096669;28;20428;-67
2022/03/19 09:13:38;;;;;;;14.93;4.10;;;;;;;20.36;32.58;104375.75;5078709;28;20062;-67
2022/03/19 09:16:05;;;;;;;11.35;3.80;;;;;;;20.78;31.92;104380.81;5096754;28;20443;-67
2022/03/19 09:18:31;;;;;;;10.93;3.90;;;;;;;22.56;28.59;104373.84;5078347;28;20118;-67
2022/03/19 09:20:57;;;;;;;13.35;3.90;;;;;;;21.79;29.22;104369.53;5096090;28;20115;-67
2022/03/19 09:23:23;;;;;;;10.48;3.22;;;;;;;19.77;30.08;104395.09;5096169;28;20020;-67
2022/03/19 09:25:48;;;;;;;10.55;3.70;;;;;;;20.42;30.69;104359.34;5094740;28;20490;-68
2022/03/19 09:28:14;;;;;;;15.80;4.18;;;;;;;20.19;29.66;104375.75;5076190;28;20038;-69
2022/03/19 09:30:39;;;;;;;10.90;2.88;;;;;;;18.89;28.53;104373.56;5093071;28;20328;-66
2022/03/19 09:33:04;;;;;;;15.85;2.92;;;;;;;17.94;29.38;104357.59;5093843;28;20027;-68
2022/03/19 09:35:30;;;;;;;15.55;3.15;;;;;;;19.72;26.84;104373.75;5094301;28;20543;-67
2022/03/19 09:37:55;;;;;;;9.57;2.60;;;;;;;17.91;28.96;104380.63;5075988;28;20049;-68
2022/03/19 09:40:21;;;;;;;8.32;2.88;;;;;;;19.53;26.52;104366.94;5076205;28;20456;-67
2022/03/19 09:42:52;;;;;;;9.05;2.42;;;;;;;18.65;27.76;104346.22;5094954;28;20035;-66
2022/03/19 09:45:18;;;;;;;8.10;2.40;;;;;;;19.22;26.69;104360.59;5095859;28;20016;-67
2022/03/19 09:47:44;;;;;;;11.27;2.80;;;;;;;18.52;27.17;104331.88;5077053;28;20020;-68
2022/03/19 09:50:09;;;;;;;13.15;3.28;;;;;;;18.55;27.02;104316.66;5059693;28;20051;-67
2022/03/19 09:52:36;;;;;;;7.18;2.58;;;;;;;16.50;30.10;104331.09;5094293;28;20031;-67
2022/03/19 09:55:01;;;;;;;7.10;2.28;;;;;;;16.06;31.40;104323.72;5095919;28;20047;-68
2022/03/19 09:57:27;;;;;;;7.50;2.35;;;;;;;14.69;31.91;104318.19;5095970;28;20462;-67
2022/03/19 09:59:52;;;;;;;11.40;3.08;;;;;;;14.40;33.14;104327.41;5077043;28;20012;-67
2022/03/19 10:02:18;;;;;;;7.63;2.35;;;;;;;14.83;33.31;104313.47;5095571;28;20020;-67
2022/03/19 10:04:43;;;;;;;10.90;2.70;;;;;;;15.06;32.65;104301.09;5095379;28;20387;-67
2022/03/19 10:09:56;;;;;;;8.25;2.50;;;;;;;13.76;32.00;104297.03;5096695;28;20386;-67
2022/03/19 10:12:25;;;;;;;8.80;2.45;;;;;;;14.52;30.47;104288.34;5096810;28;20103;-68
2022/03/19 10:14:53;;;;;;;10.75;2.92;;;;;;;14.64;29.52;104284.72;5096206;28;20024;-66
2022/03/19 10:17:35;;;;;;;10.65;2.63;;;;;;;14.67;29.16;104284.44;5077968;28;20024;-68
2022/03/19 10:20:07;;;;;;;10.57;2.50;;;;;;;14.52;29.69;104276.16;5076994;28;20385;-68
2022/03/19 10:22:32;;;;;;;12.00;2.83;;;;;;;15.84;29.12;104279.63;5095437;28;20024;-67
2022/03/19 10:25:07;;;;;;;10.82;2.60;;;;;;;16.06;29.87;104278.53;5077212;28;20030;-67
2022/03/19 10:27:38;;;;;;;6.20;2.45;;;;;;;15.18;29.79;104275.78;5095443;28;20056;-67
2022/03/19 10:30:06;;;;;;;7.68;2.30;;;;;;;15.38;29.77;104273.22;5096095;28;20027;-67
2022/03/19 10:32:34;;;;;;;7.88;2.65;;;;;;;15.68;30.64;104273.19;5095133;28;20047;-66
2022/03/19 10:35:01;;;;;;;7.53;2.28;;;;;;;16.41;29.14;104255.25;5095081;28;20069;-67
2022/03/19 10:37:39;;;;;;;9.35;2.47;;;;;;;16.22;28.16;104258.72;5095169;28;20375;-67
2022/03/19 10:40:08;;;;;;;9.45;2.70;;;;;;;15.02;29.94;104254.63;5095096;28;20028;-67
2022/03/19 10:42:41;;;;;;;8.48;2.47;;;;;;;15.67;29.81;104262.84;5076589;28;20505;-67
2022/03/19 10:45:12;;;;;;;10.23;2.92;;;;;;;15.21;30.00;104252.06;5095136;28;20081;-66
2022/03/19 10:47:46;;;;;;;6.43;2.22;;;;;;;14.72;30.74;104253.66;5094939;28;20031;-67
2022/03/19 10:50:19;;;;;;;8.27;2.45;;;;;;;15.06;30.51;104251.59;5076463;28;20112;-67
2022/03/19 10:52:46;;;;;;;15.15;2.58;;;;;;;15.88;29.03;104247.94;5094746;28;20555;-68
2022/03/19 10:55:11;;;;;;;5.53;2.47;;;;;;;15.32;28.81;104241.53;5076649;28;20522;-68
2022/03/19 10:57:37;;;;;;;6.55;2.40;;;;;;;15.81;28.67;104241.59;5076117;28;20027;-67
2022/03/19 11:00:04;;;;;;;4.90;2.13;;;;;;;14.73;29.42;104231.91;5076136;28;20016;-66
2022/03/19 11:02:31;;;;;;;7.25;2.30;;;;;;;15.24;29.09;104228.34;5094246;28;20023;-66
2022/03/19 11:04:58;;;;;;;8.65;2.50;;;;;;;16.03;27.73;104219.63;5094448;28;20032;-66
2022/03/19 11:07:24;;;;;;;8.02;2.50;;;;;;;16.46;28.15;104213.91;5094379;28;20092;-68
2022/03/19 11:09:51;;;;;;;7.05;2.10;;;;;;;15.16;28.20;104222.97;5075845;28;20442;-68
2022/03/19 11:12:21;;;;;;;5.97;2.30;;;;;;;15.58;27.98;104220.16;5094365;28;20028;-67
2022/03/19 11:14:53;;;;;;;7.55;2.30;;;;;;;15.99;27.71;104213.03;5093974;28;20024;-68
2022/03/19 11:17:32;;;;;;;9.80;2.58;;;;;;;16.52;26.37;104193.41;5075876;28;20031;-69
2022/03/19 11:20:00;;;;;;;8.40;2.55;;;;;;;16.45;26.60;104193.16;5075977;28;20020;-69
2022/03/19 11:22:28;;;;;;;7.03;2.47;;;;;;;16.32;26.71;104193.47;5075602;28;20028;-67
2022/03/19 11:25:08;;;;;;;8.05;2.42;;;;;;;15.86;27.52;104189.88;5093905;28;20379;-68
2022/03/19 11:27:38;;;;;;;5.93;1.95;;;;;;;16.45;26.77;104188.75;5093670;28;20417;-67
2022/03/19 11:30:05;;;;;;;8.73;2.63;;;;;;;16.92;26.04;104183.47;5075655;28;20039;-67
2022/03/19 11:32:31;;;;;;;6.68;2.10;;;;;;;16.26;26.80;104177.56;5093808;28;20422;-67
2022/03/19 11:34:59;;;;;;;8.43;2.40;;;;;;;15.93;26.95;104169.25;5075938;28;20020;-68
2022/03/19 11:37:45;;;;;;;6.65;2.20;;;;;;;16.42;26.42;104172.56;5075462;28;20048;-67